Airfield :
LOGIN :

Register | Disclaimer

   EN    FR    IT 

 










Legend :    VFR   Marginal VFR   IFR   Intensive IFR   Very Intensive IFR
Visi :
Ceiling :
>= 8 km
>= 3000ft
5 to 8 km
1000 to 3000 ft
1500m to 5 km
500 to 1000 ft
800 to 1500m
200 to 500 ft
< 800m
< 200 ft
Symbols :   Thunderstorms  Fog  Heavy snow  Heavy precipitations  Wind > 20 kt
SIGMETs :     Misc.  Thunderstorms  Icing  Turbulence  Mountain Waves  Volcanic Ashes






- Airport Elevation : 141 ft
- IATA code : SKS


EKSP - Srydstrup Vojens

CURRENT METAR :
  • 090450Z 19009KT 9999 SCT028 SCT095 11/09 Q1003

EXPIRED METARs :
  • 090420Z 19008KT 9999 SCT028 10/09 Q1003
  • 090350Z 19008KT 9999 BKN028 10/09 Q1003
  • 090320Z 19010KT 9999 FEW005 OVC024 10/09 Q1003
  • 090250Z 20010KT 8000 SCT005 BKN007 BKN015 10/09 Q1003
  • 090220Z 20012KT 2500 -RA SCT005 BKN007 09/09 Q1003

TAF AMD TAF EKSP
Valid from the 09 at 03:00 until the 10 at 03:00 UTC


090332Z 0903/1003 19012KT 9999 FEW030 SCT200
TEMPO 0903/0905 6000
TEMPO 0907/0915 20012G22KT
TEMPO 0915/0922 VRB08G22KT 4000 SHRA TSRA BKN060CB



MET'MAP, your aeronautical weather chart ! - Copyright ORBIFLY December 2007 - Disclaimer

ORBIFLY MET'MAP TEAM :

Programming & Development : Alexandra Zaïnal
Concept & original design : Baudouin d'Aumeries
Assistance for programming : Marc-Olivier Méhu
Technical & hardware support : Manuel Goepfert

Contact : metmap@orbifly.com




SOURCES & CREDITS :

   NOAA